• Join FlightAware (Why Join?)
  • Login
  • US Flag 
06:52AM EDT


 

Airport Tracker/Info


-or-


 

Live Flight TrackerFlight Track Log ✈ SWA412 ✈ 21-Oct-2013 ✈ KDEN - KGRR

Flight Track Log - Related Links

Times and Time Zones

All times are in EDT time to prevent confusion due to time zone crossing. See the SWA412 flight status page for this flight to view local times or setup timezone preferences in your user account.

Time Position Orientation Groundspeed Altitude Reporting Facility
EDT Latitude Longitude Course Direction KTS MPH feet Rate Location/Type
08:01PM 39.9167 -104.6833 49° Northeast 208 239 6,700  Level Denver TRACON
08:02PM 39.9500 -104.6333 49° Northeast 209 241 8,400 1,680 Climbing Denver TRACON
08:03PM 40.0000 -104.6000 27° Northeast 259 298 10,000 1,680 Climbing Denver TRACON
08:04PM 39.9833 -104.4833 101° East 347 399 11,800 2,040 Climbing Denver TRACON
08:06PM 39.9303 -104.3417 116° Southeast 372 428 14,800 2,640 Climbing Denver Center
08:07PM 39.9183 -104.1883 96° East 394 453 17,800 2,700 Climbing Denver Center
08:08PM 39.9069 -104.0392 96° East 412 474 20,500 2,340 Climbing Denver Center
08:09PM 39.8939 -103.8819 96° East 434 499 22,700 2,220 Climbing Denver Center
08:10PM 39.8861 -103.7067 93° East 447 514 25,200 2,220 Climbing Denver Center
08:11PM 39.9044 -103.5492 81° East 443 510 27,300 1,920 Climbing Denver Center
08:12PM 39.9236 -103.3864 81° East 453 521 29,200 1,980 Climbing Denver Center
08:13PM 39.9408 -103.2228 82° East 457 526 31,400 1,740 Climbing Denver Center
08:14PM 39.9597 -103.0617 81° East 452 520 32,800 1,320 Climbing Denver Center
08:15PM 39.9808 -102.8592 82° East 468 539 34,200 1,020 Climbing Denver Center
08:16PM 40.0000 -102.6839 82° East 474 545 35,000 360 Climbing Denver Center
08:17PM 40.0175 -102.5211 82° East 474 545 35,000  Level Denver Center
08:18PM 40.0361 -102.3333 83° East 469 540 35,000  Level Denver Center
08:19PM 40.0533 -102.1711 82° East 472 543 35,000  Level Denver Center
08:20PM 40.0728 -101.9825 82° East 472 543 35,000  Level Denver Center
08:21PM 40.0889 -101.8192 83° East 474 545 35,000  Level Denver Center
08:22PM 40.1053 -101.6564 82° East 474 545 35,000 600 Level Denver Center
08:23PM 40.1239 -101.4656 83° East 476 548 36,300 960 Climbing Denver Center
08:24PM 40.1394 -101.3028 83° East 474 545 37,000 300 Climbing Denver Center
08:25PM 40.1583 -101.1083 83° East 481 554 37,000  Level Denver Center
08:26PM 40.1733 -100.9408 83° East 487 560 37,000  Level Denver Center
08:27PM 40.1917 -100.7444 83° East 490 564 37,000  Level Denver Center
08:28PM 40.2050 -100.5761 84° East 491 565 37,000  Level Denver Center
08:29PM 40.2081 -100.3772 89° East 493 567 37,000 60 Level Denver Center
08:30PM 40.2108 -100.2058 89° East 496 571 37,200 720 Climbing Denver Center
08:31PM 40.2133 -100.0067 89° East 494 568 38,500 840 Climbing Denver Center
08:33PM 40.2161 -99.8181 89° East 494 568 39,000 240 Climbing Denver Center
08:34PM 40.2181 -99.6378 89° East 496 571 39,000  Level Denver Center
08:35PM 40.2189 -99.4583 90° East 495 570 39,000  Level Denver Center
08:36PM 40.2214 -99.2803 89° East 493 567 39,000  Level Denver Center
08:37PM 40.2222 -99.0283 90° East 498 573 39,000  Level Minneapolis Center
08:38PM 40.2231 -98.8503 90° East 495 570 39,000  Level Minneapolis Center
08:39PM 40.2231 -98.6708 90° East 495 570 39,000  Level Minneapolis Center
08:40PM 40.2225 -98.4917 90° East 495 570 39,000  Level Minneapolis Center
08:41PM 40.2233 -98.3125 90° East 495 570 39,000  Level Minneapolis Center
08:42PM 40.2219 -98.1336 91° East 494 568 39,000  Level Minneapolis Center
08:43PM 40.2214 -97.9186 90° East 493 567 39,000  Level Minneapolis Center
08:44PM 40.2206 -97.7394 90° East 495 570 39,000  Level Minneapolis Center
08:45PM 40.2192 -97.5592 91° East 496 571 39,000  Level Minneapolis Center
08:46PM 40.2167 -97.3797 91° East 496 571 39,000  Level Minneapolis Center
08:47PM 40.2150 -97.1911 91° East 497 572 39,000  Level Minneapolis Center
08:48PM 40.2136 -97.0100 91° East 498 573 39,000  Level Minneapolis Center
08:49PM 40.2111 -96.8294 91° East 500 575 39,000  Level Minneapolis Center
08:50PM 40.2083 -96.6117 91° East 500 575 39,000  Level Minneapolis Center
08:51PM 40.2053 -96.4317 91° East 498 573 39,000  Level Minneapolis Center
08:52PM 40.2242 -96.2558 82° East 492 566 39,000  Level Minneapolis Center
08:53PM 40.2758 -96.0928 67° East 489 563 39,000  Level Minneapolis Center
08:54PM 40.3247 -95.9292 69° East 486 559 39,000  Level Minneapolis Center
08:56PM 40.3747 -95.7619 69° East 491 565 39,000  Level Minneapolis Center
08:57PM 40.4342 -95.5642 68° East 490 564 39,000  Level Minneapolis Center
08:58PM 40.4833 -95.3997 68° East 488 562 39,000  Level Minneapolis Center
08:59PM 40.5325 -95.2319 69° East 490 564 39,000  Level Minneapolis Center
09:00PM 40.5822 -95.0647 69° East 493 567 39,000  Level Minneapolis Center
09:01PM 40.6311 -94.8958 69° East 495 570 39,000  Level Minneapolis Center
09:02PM 40.6889 -94.6936 69° East 493 567 39,000  Level Minneapolis Center
09:03PM 40.7317 -94.5478 69° East 494 568 39,000  Level Minneapolis Center
09:04PM 40.7886 -94.3444 70° East 494 568 39,000  Level Minneapolis Center
09:05PM 40.8342 -94.1764 70° East 492 566 39,000  Level Minneapolis Center
09:06PM 40.8850 -94.0050 69° East 497 572 39,000  Level Minneapolis Center
09:07PM 40.9314 -93.8350 70° East 496 571 39,000  Level Minneapolis Center
09:08PM 40.9783 -93.6633 70° East 497 572 39,000  Level Minneapolis Center
09:09PM 41.0275 -93.4919 69° East 498 573 39,000  Level Minneapolis Center
09:10PM 41.0842 -93.2850 70° East 500 575 39,000  Level Minneapolis Center
09:11PM 41.1317 -93.1122 70° East 500 575 39,000  Level Minneapolis Center
09:12PM 41.1778 -92.9375 71° East 502 578 39,000  Level Minneapolis Center
09:13PM 41.2064 -92.8325 70° East 500 575 39,000  Level Chicago Center
09:14PM 41.2522 -92.6578 71° East 502 578 39,000  Level Chicago Center
09:15PM 41.2981 -92.4850 71° East 500 575 39,000  Level Chicago Center
09:16PM 41.3475 -92.2989 70° East 504 580 39,000  Level Chicago Center
09:17PM 41.4017 -92.0906 71° East 502 578 39,000  Level Chicago Center
09:18PM 41.4467 -91.9175 71° East 500 575 39,000  Level Chicago Center
09:19PM 41.4911 -91.7453 71° East 497 572 39,000  Level Chicago Center
09:20PM 41.5353 -91.5747 71° East 494 568 39,000  Level Chicago Center
09:21PM 41.5794 -91.4000 71° East 499 574 39,000  Level Chicago Center
09:22PM 41.6308 -91.1914 72° East 499 574 39,000  Level Chicago Center
09:23PM 41.6753 -91.0153 71° East 503 579 39,000 -240 Level Chicago Center
09:24PM 41.7186 -90.8400 72° East 503 579 38,600 -660 Descending Chicago Center
09:25PM 41.7617 -90.6622 72° East 506 582 37,700 -780 Descending Chicago Center
09:26PM 41.8050 -90.4856 72° East 506 582 37,000 -360 Descending Chicago Center
09:27PM 41.8572 -90.2692 72° East 512 589 37,000  Level Chicago Center
09:28PM 41.9003 -90.0878 72° East 514 592 37,000  Level Chicago Center
09:29PM 41.9456 -89.8894 73° East 514 592 37,000  Level Chicago Center
09:30PM 41.9906 -89.7028 72° East 518 596 37,000 -480 Level Chicago Center
09:31PM 42.0347 -89.5161 72° East 524 603 36,100 -900 Descending Chicago Center
09:32PM 42.0797 -89.3211 73° East 531 611 35,200 -540 Descending Chicago Center
09:33PM 42.1219 -89.1306 73° East 532 612 35,000 -120 Descending Chicago Center
09:34PM 42.1653 -88.9431 73° East 529 609 35,000 -360 Level Chicago Center
09:35PM 42.2081 -88.7556 73° East 532 612 34,300 -1,320 Descending Chicago Center
09:36PM 42.2592 -88.5247 73° East 533 613 32,400 -2,100 Descending Chicago Center
09:37PM 42.3011 -88.3333 73° East 532 612 30,100 -1,620 Descending Chicago Center
09:38PM 42.3428 -88.1442 73° East 530 610 29,100 -1,020 Descending Chicago Center
09:39PM 42.3844 -87.9550 73° East 530 610 28,100 -1,020 Descending Chicago Center
09:41PM 42.4247 -87.7694 74° East 520 598 27,100 -1,080 Descending Chicago Center
09:42PM 42.4636 -87.5819 74° East 513 590 26,000 -1,020 Descending Chicago Center
09:43PM 42.5019 -87.4019 74° East 503 579 25,000 -1,080 Descending Chicago Center
09:44PM 42.5467 -87.1900 74° East 490 564 23,800 -1,080 Descending Chicago Center
09:45PM 42.5822 -87.0311 73° East 488 562 22,900 -1,440 Descending Chicago Center
09:46PM 42.6347 -86.8667 66° East 480 552 20,900 -2,100 Descending Chicago Center
09:47PM 42.6836 -86.7081 67° East 462 532 18,600 -2,340 Descending Chicago Center
09:48PM 42.7264 -86.5508 70° East 448 516 16,200 -2,640 Descending Chicago Center
09:49PM 42.7583 -86.3622 77° East 431 496 13,300 -2,580 Descending Chicago Center
09:50PM 42.7789 -86.2092 80° East 420 483 11,000 -1,500 Descending Chicago Center
09:51PM 42.7994 -86.0714 78° East 389 448 10,300 -840 Descending Chicago Center
09:52PM 42.8144 -85.9500 80° East 355 409 9,400 -1,020 Descending Chicago Center
09:53PM 42.8075 -85.8367 95° East 317 365 8,300 -1,200 Descending Chicago Center
09:54PM 42.8008 -85.7281 95° East 297 342 7,000 -1,140 Descending Chicago Center
09:55PM 42.7939 -85.6114 95° East 271 312 6,000 -960 Descending Chicago Center
09:56PM 42.7886 -85.5231 95° East 246 283 5,100 -1,020 Descending Chicago Center
09:57PM 42.7861 -85.4336 92° East 239 275 4,000 -840 Descending Chicago Center
09:58PM 42.7922 -85.3531 84° East 223 257 3,400 -600 Descending Chicago Center
09:59PM 42.8308 -85.3358 18° North 180 207 2,800 -480 Descending Chicago Center
10:00PM 42.8689 -85.3475 347° North 155 178 2,500 -180 Descending Chicago Center
10:01PM 42.8894 -85.3894 304° West 146 168 2,500 -360 Level Chicago Center
10:02PM 42.8897 -85.4381 270° West 135 155 1,800 -720 Descending Chicago Center
10:03PM 42.8825 -85.4897 259° West 123 142 1,100 -480 Descending Chicago Center
10:04PM 42.8772 -85.5322 260° West 121 139 900 -240 Descending Chicago Center